Rankings de siempre
Mejores tiempos personales válidos de equipo a través de todos los eventos y temporadas. Cada equipo aparece una vez por división.
Busca por nombre y abre la página donde está clasificado este récord de división.
137,494 equipos clasificados
| Pos. | Pos. AG | Equipo | Nacionalidad | Categoría de edad | TiempoMejor tiempo | Diferencia |
|---|---|---|---|---|---|---|
| 132601 | #10887 | Bhumi Patel & Kritika DusadW 16-24 · AG #10887 | -- | W 16-24 | 1:59:20 | +65:59 |
| 132602 | #14470 | Ambra Washington & Portina AlexanderUSA · W 35-39 · AG #14470 | USA | W 35-39 | 1:59:20 | +65:59 |
| 132603 | #10888 | Emma Amalie Marie Schmidt & Angelina LuhnGER · W 16-24 · AG #10888 | GER | W 16-24 | 1:59:21 | +66:00 |
| 132604 | #19671 | Amelia Lauaki & Temaleti TaunisilaAUS · W 25-29 · AG #19671 | AUS | W 25-29 | 1:59:21 | +66:00 |
| 132605 | #41955 | Dlacey Nelson & Britney JohnsonUSA · W 30-34 · AG #41955 | USA | W 30-34 | 1:59:21 | +66:00 |
| 132606 | #41956 | Sarah Quinn & HOLLY QuinnGBR · W 30-34 · AG #41956 | GBR | W 30-34 | 1:59:21 | +66:00 |
| 132607 | #41957 | Amanda Harvey & Jessica Giannino-WoodwardUSA · W 30-34 · AG #41957 | USA | W 30-34 | 1:59:21 | +66:00 |
| 132608 | #18858 | Jessica Shirinian & Monica BaronUSA · W 40-44 · AG #18858 | USA | W 40-44 | 1:59:21 | +66:00 |
| 132609 | #3073 | Tiffany Dichiara & Emma Jane NabulsiW 50-54 · AG #3073 | -- | W 50-54 | 1:59:21 | +66:00 |
| 132610 | -- | Holly Fuller & Phoebe HewettGBR · W WU29 | GBR | W WU29 | 1:59:21 | +66:00 |
| 132611 | #41958 | Kate Teo & Jazebeth JayaMAS · W 30-34 · AG #41958 | MAS | W 30-34 | 1:59:21 | +66:00 |
| 132612 | #4367 | Elaine Kerr & Jennifer ReidGBR · W 45-49 · AG #4367 | GBR | W 45-49 | 1:59:21 | +66:00 |
| 132613 | #14471 | 怀周 高 & 昕雨 罗CHN · W 35-39 · AG #14471 | CHN | W 35-39 | 1:59:21 | +66:00 |
| 132614 | #19672 | Anita Angela & Jennifer Clara ChandraINA · W 25-29 · AG #19672 | INA | W 25-29 | 1:59:21 | +66:00 |
| 132615 | #19673 | Lauren Williams & Elizabeth ChristopherUSA · W 25-29 · AG #19673 | USA | W 25-29 | 1:59:22 | +66:01 |
| 132616 | #10889 | Daphne Hendriks & Jasmijn AzarzarNED · W 16-24 · AG #10889 | NED | W 16-24 | 1:59:22 | +66:01 |
| 132617 | #10890 | Johanna Metzger & Suhani SharmaW 16-24 · AG #10890 | -- | W 16-24 | 1:59:22 | +66:01 |
| 132618 | #41959 | Isabel Danz & Candice NaidooW 30-34 · AG #41959 | -- | W 30-34 | 1:59:22 | +66:01 |
| 132619 | -- | Jing Wen Lin & Jing Yi LinSIN · W WU29 | SIN | W WU29 | 1:59:22 | +66:01 |
| 132620 | #10891 | Manon Boudret & Ilona ThomasFRA · W 16-24 · AG #10891 | FRA | W 16-24 | 1:59:22 | +66:01 |
| 132621 | #41960 | Sheila Panata & Lily CaoW 30-34 · AG #41960 | -- | W 30-34 | 1:59:22 | +66:01 |
| 132622 | #41961 | Lily Roach & Melissa WoodGBR · W 30-34 · AG #41961 | GBR | W 30-34 | 1:59:22 | +66:01 |
| 132623 | #18859 | Suhani Mahajan & Mansi MahajanIND · W 40-44 · AG #18859 | IND | W 40-44 | 1:59:23 | +66:02 |
| 132624 | #41962 | Eline Middelhoven & Nicole JonkersNED · W 30-34 · AG #41962 | NED | W 30-34 | 1:59:23 | +66:02 |
| 132625 | #414 | Dora Perrucci & Heike OesterreichGER · W 40-49 · AG #414 | GER | W 40-49 | 1:59:23 | +66:02 |
Página 5,305 de 5,500